Time;durP1;ratioP1;P1;durP2;ratioP2;P2;SDS_P1;SDS_P2;PMS_P1;PMS_P2;Temp;Humidity;BMP_temperature;BMP_pressure;BME280_temperature;BME280_humidity;BME280_pressure;Samples;Min_cycle;Max_cycle;Signal;HPM_P1;HPM_P2
2022/09/04 00:07:17;;;;;;;2.83;1.20;;;18.00;99.90;;;;;;20637428;28;20082;-39
2022/09/04 00:17:30;;;;;;;2.75;1.25;;;18.00;99.90;;;;;;20641892;28;20038;-39
2022/09/04 00:27:43;;;;;;;2.42;1.40;;;17.90;99.90;;;;;;20631244;28;20391;-39
2022/09/04 00:37:47;;;;;;;3.10;1.55;;;17.80;99.90;;;;;;20612757;28;20323;-39
2022/09/04 00:48:00;;;;;;;2.35;1.17;;;17.70;99.90;;;;;;20634135;28;20186;-39
2022/09/04 00:58:16;;;;;;;2.45;1.50;;;17.70;99.90;;;;;;20652232;28;20594;-39
2022/09/04 01:09:04;;;;;;;2.90;1.48;;;17.60;99.90;;;;;;20640665;28;20256;-39
2022/09/04 01:19:38;;;;;;;5.30;1.63;;;17.60;99.90;;;;;;20606142;28;20317;-39
2022/09/04 01:29:53;;;;;;;1.92;1.20;;;17.50;99.90;;;;;;20642054;28;20731;-39
2022/09/04 01:40:25;;;;;;;2.67;1.50;;;17.40;99.90;;;;;;20647494;28;20116;-39
2022/09/04 01:50:30;;;;;;;4.28;1.88;;;17.20;99.90;;;;;;20628642;28;20575;-39
2022/09/04 02:00:37;;;;;;;4.75;1.90;;;17.20;99.90;;;;;;20654744;28;20877;-38
2022/09/04 02:10:50;;;;;;;2.50;1.77;;;17.10;99.90;;;;;;20655195;28;20583;-39
2022/09/04 02:21:22;;;;;;;4.15;2.10;;;17.10;99.90;;;;;;20645060;28;20120;-39
2022/09/04 02:41:49;;;;;;;6.63;2.40;;;17.00;99.90;;;;;;21225294;22;20510;-82
2022/09/04 02:52:17;;;;;;;4.28;2.53;;;16.80;99.90;;;;;;20887664;28;20040;-82
2022/09/04 03:02:29;;;;;;;6.17;2.57;;;16.80;99.90;;;;;;20861954;28;20953;-82
2022/09/04 03:13:05;;;;;;;4.47;2.72;;;16.90;99.90;;;;;;20873694;28;20064;-81
2022/09/04 03:23:18;;;;;;;4.78;2.60;;;17.10;99.90;;;;;;20903298;28;20044;-82
2022/09/04 03:34:09;;;;;;;4.55;2.60;;;17.00;99.90;;;;;;20888136;28;20532;-82
2022/09/04 03:44:26;;;;;;;5.93;2.58;;;16.90;99.90;;;;;;20878398;28;20676;-82
2022/09/04 03:54:58;;;;;;;4.07;2.40;;;16.80;99.90;;;;;;20963507;28;21554;-82
2022/09/04 04:05:39;;;;;;;4.40;2.55;;;16.90;99.90;;;;;;20983626;28;21704;-82
2022/09/04 04:16:02;;;;;;;4.22;2.00;;;16.80;99.90;;;;;;20931152;28;20497;-82
2022/09/04 04:26:16;;;;;;;4.85;2.55;;;16.60;99.90;;;;;;20959058;28;20025;-82
2022/09/04 04:36:35;;;;;;;6.28;3.28;;;16.70;99.90;;;;;;20939911;28;20048;-82
2022/09/04 04:47:14;;;;;;;4.25;2.55;;;16.70;99.90;;;;;;20993031;28;21559;-82
2022/09/04 04:57:37;;;;;;;5.97;3.15;;;16.70;99.90;;;;;;20977023;28;20629;-82
2022/09/04 05:08:05;;;;;;;6.13;3.88;;;16.80;99.90;;;;;;20945562;28;20675;-82
2022/09/04 05:18:28;;;;;;;4.93;2.33;;;16.90;99.90;;;;;;20975456;28;20062;-82
2022/09/04 05:28:44;;;;;;;4.07;2.40;;;16.90;99.90;;;;;;21004350;28;22122;-82
2022/09/04 05:39:12;;;;;;;4.38;2.25;;;16.90;99.90;;;;;;21009318;28;22119;-82
2022/09/04 05:49:37;;;;;;;6.68;3.15;;;16.90;99.90;;;;;;20994562;28;20958;-82
2022/09/04 05:59:56;;;;;;;3.08;1.85;;;16.90;99.90;;;;;;21024972;28;20683;-81
2022/09/04 06:10:07;;;;;;;3.60;2.08;;;17.00;99.90;;;;;;21013744;28;20036;-81
2022/09/04 06:20:11;;;;;;;5.30;2.22;;;17.20;99.90;;;;;;21005776;28;20047;-82
2022/09/04 06:30:14;;;;;;;10.20;4.63;;;17.40;99.90;;;;;;20998756;28;20430;-82
2022/09/04 06:41:01;;;;;;;6.72;4.03;;;17.70;99.90;;;;;;21019482;28;20051;-81
2022/09/04 06:51:17;;;;;;;6.32;3.95;;;17.90;99.90;;;;;;21008575;28;20514;-81
2022/09/04 07:01:42;;;;;;;6.47;3.85;;;18.10;99.90;;;;;;21006247;28;21545;-82
2022/09/04 07:12:09;;;;;;;8.63;3.83;;;18.40;99.90;;;;;;20983204;28;20614;-81
2022/09/04 07:22:30;;;;;;;10.75;3.80;;;18.70;99.90;;;;;;20999998;28;20102;-82
2022/09/04 07:32:40;;;;;;;8.40;3.22;;;18.90;99.90;;;;;;20984089;28;21512;-81
2022/09/04 07:42:50;;;;;;;3.95;2.63;;;19.30;99.90;;;;;;20976769;28;20043;-81
2022/09/04 07:53:18;;;;;;;4.80;3.00;;;19.70;99.90;;;;;;21005038;28;20044;-81
2022/09/04 08:03:27;;;;;;;;;;;20.00;99.90;;;;;;21005152;28;20532;-81
2022/09/04 08:13:50;;;;;;;5.83;3.50;;;20.50;99.90;;;;;;21007671;28;19920;-81
2022/09/04 08:24:14;;;;;;;6.53;4.55;;;20.90;99.90;;;;;;20982028;28;20485;-81
2022/09/04 08:34:41;;;;;;;7.60;3.63;;;21.50;99.90;;;;;;20979965;28;20614;-81
2022/09/04 08:45:10;;;;;;;4.97;2.50;;;21.90;99.90;;;;;;20970851;28;20672;-83
2022/09/04 08:55:32;;;;;;;5.90;3.55;;;22.30;99.90;;;;;;20980286;28;20124;-82
2022/09/04 09:05:45;;;;;;;6.45;3.13;;;22.70;99.90;;;;;;20980018;28;20590;-82
2022/09/04 09:16:17;;;;;;;7.90;4.05;;;23.10;99.90;;;;;;20995952;28;21282;-82
2022/09/04 09:26:29;;;;;;;6.28;3.38;;;23.40;99.90;;;;;;20955102;28;20534;-81
2022/09/04 09:36:51;;;;;;;8.68;3.40;;;24.00;99.90;;;;;;20978242;28;20547;-82
2022/09/04 09:47:10;;;;;;;4.53;2.45;;;24.10;99.90;;;;;;20984304;28;20675;-82
2022/09/04 09:57:32;;;;;;;5.60;3.13;;;24.40;99.90;;;;;;20985467;28;20032;-82
2022/09/04 10:08:15;;;;;;;5.32;2.88;;;24.70;99.90;;;;;;20991224;28;20055;-82
2022/09/04 10:18:44;;;;;;;4.38;2.28;;;24.90;99.90;;;;;;20980110;28;20500;-82
2022/09/04 10:29:22;;;;;;;4.53;1.90;;;25.20;99.90;;;;;;20987681;28;20120;-81
2022/09/04 10:50:14;;;;;;;3.38;1.63;;;25.70;99.90;;;;;;21018223;28;20907;-80
2022/09/04 11:00:15;;;;;;;2.42;1.05;;;26.10;99.90;;;;;;20967986;28;20388;-81
2022/09/04 11:10:25;;;;;;;2.38;0.88;;;26.40;99.90;;;;;;20992577;28;20040;-81
2022/09/04 11:20:46;;;;;;;3.00;0.88;;;26.40;99.90;;;;;;21005018;28;20032;-81
2022/09/04 11:31:00;;;;;;;1.00;0.50;;;27.20;99.90;;;;;;21000314;28;20043;-81
2022/09/04 11:41:51;;;;;;;1.10;0.60;;;27.50;99.90;;;;;;20991381;28;20045;-81
2022/09/04 11:52:27;;;;;;;1.20;0.40;;;27.70;99.90;;;;;;20996695;28;20041;-81
2022/09/04 12:02:44;;;;;;;1.38;0.55;;;27.60;99.90;;;;;;21012338;28;20490;-81
2022/09/04 12:13:02;;;;;;;1.23;0.77;;;27.30;99.90;;;;;;20971577;28;20044;-80
2022/09/04 12:23:34;;;;;;;2.53;1.17;;;27.70;99.90;;;;;;20974146;28;20032;-81
2022/09/04 12:34:03;;;;;;;1.60;0.65;;;27.60;99.90;;;;;;20983917;28;20996;-81
2022/09/04 12:44:22;;;;;;;0.73;0.52;;;27.60;99.90;;;;;;21001461;28;20454;-81
2022/09/04 12:54:34;;;;;;;2.25;1.10;;;27.50;99.90;;;;;;20980377;28;20055;-81
2022/09/04 13:05:02;;;;;;;1.83;0.75;;;27.80;99.90;;;;;;20980488;28;20055;-81
2022/09/04 13:15:31;;;;;;;2.05;0.80;;;27.30;99.90;;;;;;20959160;28;20045;-81
2022/09/04 13:25:51;;;;;;;1.52;0.77;;;26.90;99.90;;;;;;20963578;28;20717;-81
2022/09/04 13:35:57;;;;;;;2.53;0.88;;;27.30;99.90;;;;;;20968128;28;20041;-81
2022/09/04 13:46:04;;;;;;;1.67;0.90;;;27.10;99.90;;;;;;21006411;28;20040;-81
2022/09/04 13:56:14;;;;;;;2.03;1.05;;;27.30;99.90;;;;;;20989174;28;20306;-81
2022/09/04 14:06:19;;;;;;;1.10;0.73;;;27.70;99.90;;;;;;20995980;28;20043;-81
2022/09/04 14:16:22;;;;;;;2.28;1.08;;;27.00;99.90;;;;;;20983770;28;20960;-81
2022/09/04 14:26:23;;;;;;;1.42;0.65;;;27.30;99.90;;;;;;20997250;28;20086;-81
2022/09/04 14:36:34;;;;;;;1.60;1.05;;;27.60;99.90;;;;;;20997461;28;20036;-81
2022/09/04 14:46:44;;;;;;;2.03;0.75;;;27.70;98.20;;;;;;20986141;28;20699;-82
2022/09/04 14:56:51;;;;;;;1.60;0.70;;;27.70;97.30;;;;;;20997135;28;20113;-82
2022/09/04 15:07:02;;;;;;;2.75;1.13;;;27.30;97.40;;;;;;20985107;28;20047;-84
2022/09/04 15:17:13;;;;;;;1.42;0.73;;;27.20;98.40;;;;;;20995905;28;20036;-80
2022/09/04 15:27:36;;;;;;;0.88;0.50;;;27.30;97.20;;;;;;20993854;28;20061;-81
2022/09/04 15:37:37;;;;;;;1.25;0.60;;;27.60;95.90;;;;;;20998217;28;20333;-81
2022/09/04 15:48:07;;;;;;;11.98;1.88;;;27.30;96.00;;;;;;20991511;28;20036;-81
2022/09/04 15:58:46;;;;;;;2.13;0.55;;;27.10;95.40;;;;;;20978085;28;20442;-80
2022/09/04 16:08:57;;;;;;;3.75;1.38;;;27.20;95.00;;;;;;20977894;28;20493;-81
2022/09/04 16:19:14;;;;;;;4.35;1.30;;;26.80;95.20;;;;;;20998611;28;20032;-81
2022/09/04 16:29:35;;;;;;;1.83;0.70;;;26.60;95.70;;;;;;21000036;28;20052;-81
2022/09/04 16:39:45;;;;;;;2.55;0.90;;;26.50;95.40;;;;;;20985958;28;20693;-82
2022/09/04 16:49:58;;;;;;;1.30;0.35;;;26.60;96.10;;;;;;21007851;28;20040;-80
2022/09/04 17:00:07;;;;;;;1.23;0.47;;;26.40;94.80;;;;;;21008779;28;20036;-81
2022/09/04 17:10:22;;;;;;;0.57;0.20;;;26.30;92.40;;;;;;21016772;28;20066;-79
2022/09/04 17:20:37;;;;;;;0.60;0.30;;;26.20;91.40;;;;;;20977488;28;21038;-79
2022/09/04 17:30:44;;;;;;;0.55;0.30;;;26.00;92.50;;;;;;21004904;28;20048;-79
2022/09/04 17:41:15;;;;;;;0.93;0.25;;;25.60;95.50;;;;;;21018879;28;20471;-79
2022/09/04 17:51:22;;;;;;;2.88;0.95;;;24.90;94.00;;;;;;21011638;28;20044;-79
2022/09/04 18:01:34;;;;;;;1.00;0.50;;;24.40;99.90;;;;;;21025845;28;20511;-79
2022/09/04 18:11:46;;;;;;;3.42;0.75;;;23.90;99.90;;;;;;20990509;28;20503;-79
2022/09/04 18:21:58;;;;;;;0.60;0.20;;;23.40;99.90;;;;;;21013788;28;20037;-80
2022/09/04 18:32:10;;;;;;;1.10;0.43;;;23.00;99.90;;;;;;21021424;28;20044;-80
2022/09/04 18:42:18;;;;;;;1.17;0.70;;;22.60;99.90;;;;;;21015755;28;20040;-79
2022/09/04 18:52:42;;;;;;;1.00;0.45;;;22.20;99.90;;;;;;20991168;28;20044;-79
2022/09/04 19:03:03;;;;;;;0.90;0.63;;;21.90;99.90;;;;;;21007913;28;20629;-79
2022/09/04 19:13:08;;;;;;;1.85;0.60;;;21.60;99.90;;;;;;21009988;28;20093;-79
2022/09/04 19:23:17;;;;;;;0.88;0.45;;;21.40;99.90;;;;;;21006104;28;20082;-79
2022/09/04 19:33:43;;;;;;;0.85;0.45;;;21.10;99.90;;;;;;21019541;28;20114;-80
2022/09/04 19:43:51;;;;;;;0.90;0.50;;;20.90;99.90;;;;;;21011521;28;20963;-80
2022/09/04 19:54:13;;;;;;;1.83;0.47;;;20.60;99.90;;;;;;20997664;28;20051;-80
2022/09/04 20:04:35;;;;;;;2.17;0.73;;;20.30;99.90;;;;;;21012955;28;20052;-80
2022/09/04 20:14:42;;;;;;;0.75;0.40;;;20.30;99.90;;;;;;21004968;28;20709;-80
2022/09/04 20:24:52;;;;;;;1.70;0.63;;;20.00;99.90;;;;;;20997311;28;20727;-80
2022/09/04 20:35:07;;;;;;;1.33;0.60;;;19.90;99.90;;;;;;20995847;28;20101;-80
2022/09/04 20:45:23;;;;;;;1.13;0.60;;;19.70;99.90;;;;;;20992238;28;20037;-80
2022/09/04 20:56:01;;;;;;;4.22;1.08;;;19.50;99.90;;;;;;21002085;28;20657;-80
2022/09/04 21:06:37;;;;;;;5.18;0.80;;;19.40;99.90;;;;;;20985799;28;20923;-80
2022/09/04 21:16:58;;;;;;;3.63;0.88;;;19.30;99.90;;;;;;20988775;28;20979;-80
2022/09/04 21:27:31;;;;;;;1.25;0.60;;;19.10;99.90;;;;;;21002499;28;20033;-81
2022/09/04 21:37:57;;;;;;;1.85;0.52;;;19.00;99.90;;;;;;21010666;28;20645;-81
2022/09/04 21:47:58;;;;;;;1.75;0.80;;;18.90;99.90;;;;;;20996819;28;20681;-81
2022/09/04 21:58:27;;;;;;;10.00;1.05;;;18.80;99.90;;;;;;20991713;28;20040;-81
2022/09/04 22:08:58;;;;;;;1.58;0.80;;;18.70;99.90;;;;;;21030235;28;20699;-81
2022/09/04 22:19:37;;;;;;;1.98;0.90;;;18.60;99.90;;;;;;21002089;28;20185;-81
2022/09/04 22:30:01;;;;;;;1.33;0.80;;;18.50;99.90;;;;;;21006923;28;20565;-81
2022/09/04 22:40:16;;;;;;;3.67;1.50;;;18.30;99.90;;;;;;20973401;28;20047;-80
2022/09/04 22:50:22;;;;;;;2.15;0.95;;;18.20;99.90;;;;;;21008224;28;20110;-81
2022/09/04 23:00:24;;;;;;;1.52;0.68;;;18.20;99.90;;;;;;21010686;28;20378;-81
2022/09/04 23:10:50;;;;;;;1.30;0.50;;;18.10;99.90;;;;;;21007831;28;20110;-81
2022/09/04 23:21:17;;;;;;;2.53;0.90;;;18.10;99.90;;;;;;21032387;28;20188;-80
2022/09/04 23:31:45;;;;;;;2.95;0.90;;;18.00;99.90;;;;;;21021731;28;20567;-81
2022/09/04 23:42:07;;;;;;;5.30;1.33;;;17.90;99.90;;;;;;21014430;28;20033;-80
2022/09/04 23:52:36;;;;;;;1.67;0.80;;;17.80;99.90;;;;;;20993328;28;20048;-81
